Aérodrome :







RETROUVEZ-NOUS SUR...

 
LOGIN :

S'inscrire | Disclaimer

   EN    FR    IT 

 









Légende :    VFR   VFR Marginal   IFR   IFR Intensif   IFR Très Intensif
Visi : 
Plafond : 
>= 8 km
>= 3000ft
5 à 8 km
1000 à 3000 ft
1500m à 5 km
500 à 1000 ft
800 à 1500m
200 à 500 ft
< 800m
< 200 ft
Symboles :   Orages  Brouillard  Fortes neiges  Fortes précipitations  Vent > 20 kt






- Altitude de l'aérodrome : 522 ft
- Code IATA : YBG


CYBG - CFB Bagotville

DERNIER METAR :
  • 131500Z 30015G20KT 15SM DRSN FEW040 M08/M12 A2998 RMK SC2 SLP164

METARs EXPIRÉS :
  • 131400Z 30012G18KT 15SM FEW040 FEW080 M09/M12 A2994 RMK SC1AC1 SLP151
  • 131300Z 29014KT 15SM FEW040 FEW080 M10/M13 A2991 RMK SC1AC2 SLP140

TAF TAF CYBG
Valide du 13 à 12h jusqu'au 14 à 12h UTC


131130Z 1312/1412 29012G22KT P6SM BKN025 BKN080
TEMPO 1312/1316 5SM -SHSN BKN020 BKN040
FM132000 29010G20KT P6SM SCT030
FM140000 VRB03KT P6SM FEW020
FM140900 VRB03KT P6SM BKN120 RMK NXT FCST BY 131800Z



MET'MAP, la Météo Aéronautique d'un coup d'oeil ! - Copyright ORBIFLY Décembre 2007 - Disclaimer

ORBIFLY MET'MAP TEAM :

Programmation & Développement : Alexandra Zaïnal
Conception & Développement : Baudouin d'Aumeries
Co-Programmation & Développement : Marc-Olivier Méhu
Soutien technique & logistique : Manuel Goepfert

Contact : metmap@orbifly.com




SOURCES & CREDITS :

   NOAA